OK15 weather

Avian Country Estates Airport
Oolagah, Oklahoma, United States

Public forecast

Using degrees Fahrenheit for public forecast. Weather courtesy of forecast.io.

Closest aviation weather report (METAR) to Avian Country Estates Airport

Closest report is Claremore Regional Airport, 12.0 nm (22.2 km) ESE. Retrieved 2019/10/20 22:35 UTC (2 minutes ago):

KGCM 202235Z AUTO 16009G14KT 10SM CLR 23/13 A2963 RMK AO2

Closest aviation forecast (TAF) to Avian Country Estates Airport

Closest forecast is Tulsa International Airport, 13.9 nm (25.7 km) SW. Retrieved 2019/10/20 18:22 UTC (4 hours ago):

TAF KTUL 201720Z 2018/2118 17012G18KT P6SM FEW250 FM210200 19010KT P6SM VCTS BKN050CB TEMPO 2102/2106 VRB15G30KT 3SM TSRA BKN025CB FM210600 33010KT P6SM BKN070 FM211400 30012G18KT P6SM SKC